createdAt,value
2022-08-30T00:00:51.216Z,16.80
2022-08-30T00:03:43.954Z,16.70
2022-08-30T00:06:31.652Z,16.60
2022-08-30T00:09:19.272Z,16.60
2022-08-30T00:12:07.137Z,16.60
2022-08-30T00:14:54.909Z,16.60
2022-08-30T00:17:43.697Z,16.60
2022-08-30T00:20:35.072Z,16.60
2022-08-30T00:23:23.298Z,16.50
2022-08-30T00:26:10.844Z,16.40
2022-08-30T00:28:58.993Z,16.40
2022-08-30T00:31:46.794Z,16.30
2022-08-30T00:34:34.634Z,16.30
2022-08-30T00:37:23.552Z,16.20
2022-08-30T00:40:15.885Z,16.10
2022-08-30T00:43:10.202Z,16.10
2022-08-30T00:46:04.917Z,16.10
2022-08-30T00:48:53.173Z,16.20
2022-08-30T00:51:42.672Z,16.10
2022-08-30T00:54:33.479Z,16.10
2022-08-30T00:57:21.229Z,16.10
2022-08-30T01:00:10.077Z,16.10
2022-08-30T01:02:58.343Z,16.00
2022-08-30T01:05:50.247Z,16.00
2022-08-30T01:08:39.250Z,15.90
2022-08-30T01:11:26.799Z,15.80
2022-08-30T01:14:17.308Z,15.80
2022-08-30T01:17:06.292Z,15.70
2022-08-30T01:20:05.137Z,15.70
2022-08-30T01:22:52.628Z,15.70
2022-08-30T01:25:43.877Z,15.70
2022-08-30T01:28:32.990Z,15.70
2022-08-30T01:31:20.572Z,15.70
2022-08-30T01:34:08.697Z,15.70
2022-08-30T01:36:56.299Z,15.70
2022-08-30T01:39:46.964Z,15.70
2022-08-30T01:42:34.673Z,15.60
2022-08-30T01:45:22.293Z,15.60
2022-08-30T01:48:13.036Z,15.50
2022-08-30T01:51:00.972Z,15.50
2022-08-30T01:53:48.528Z,15.50
2022-08-30T01:56:37.353Z,15.40
2022-08-30T01:59:25.172Z,15.40
2022-08-30T02:02:12.713Z,15.40
2022-08-30T02:05:00.333Z,15.30
2022-08-30T02:07:47.848Z,15.30
2022-08-30T02:10:35.693Z,15.30
2022-08-30T02:13:23.673Z,15.20
2022-08-30T02:16:16.954Z,15.10
2022-08-30T02:19:04.825Z,15.10
2022-08-30T02:21:52.343Z,15.10
2022-08-30T02:24:40.227Z,15.10
2022-08-30T02:27:28.310Z,15.10
2022-08-30T02:30:15.957Z,15.10
2022-08-30T02:33:04.376Z,15.10
2022-08-30T02:35:52.127Z,15.10
2022-08-30T02:38:39.758Z,15.10
2022-08-30T02:41:27.248Z,15.10
2022-08-30T02:44:15.207Z,15.10
2022-08-30T02:47:03.095Z,15.10
2022-08-30T02:49:52.158Z,15.00
2022-08-30T02:52:39.804Z,15.00
2022-08-30T02:55:27.812Z,15.00
2022-08-30T02:58:15.717Z,15.10
2022-08-30T03:01:05.894Z,15.10
2022-08-30T03:03:53.879Z,15.20
2022-08-30T03:06:41.615Z,15.10
2022-08-30T03:09:29.801Z,15.20
2022-08-30T03:12:17.397Z,15.20
2022-08-30T03:15:07.990Z,15.20
2022-08-30T03:17:56.167Z,15.10
2022-08-30T03:20:53.938Z,15.00
2022-08-30T03:23:43.875Z,15.00
2022-08-30T03:26:31.423Z,15.00
2022-08-30T03:29:19.017Z,14.90
2022-08-30T03:32:06.674Z,14.80
2022-08-30T03:34:54.287Z,14.80
2022-08-30T03:37:41.878Z,14.80
2022-08-30T03:40:29.539Z,14.70
2022-08-30T03:43:17.892Z,14.70
2022-08-30T03:46:06.130Z,14.70
2022-08-30T03:48:57.437Z,14.70
2022-08-30T03:51:45.125Z,14.70
2022-08-30T03:54:32.712Z,14.60
2022-08-30T03:57:24.479Z,14.60
2022-08-30T04:00:15.867Z,14.60
2022-08-30T04:03:03.592Z,14.60
2022-08-30T04:05:51.187Z,14.60
2022-08-30T04:08:40.408Z,14.70
2022-08-30T04:11:28.043Z,14.70
2022-08-30T04:14:15.816Z,14.70
2022-08-30T04:17:03.396Z,14.80
2022-08-30T04:19:51.018Z,14.80
2022-08-30T04:22:39.034Z,14.80
2022-08-30T04:25:26.668Z,14.80
2022-08-30T04:28:14.294Z,14.70
2022-08-30T04:31:12.474Z,14.70
2022-08-30T04:34:02.887Z,14.70
2022-08-30T04:36:50.539Z,14.70
2022-08-30T04:39:38.160Z,14.70
2022-08-30T04:42:25.647Z,14.70
2022-08-30T04:45:16.742Z,14.80
2022-08-30T04:48:04.444Z,14.80
2022-08-30T04:50:52.129Z,14.90
2022-08-30T04:53:40.513Z,14.90
2022-08-30T04:56:28.109Z,15.00
2022-08-30T04:59:15.674Z,15.00
2022-08-30T05:02:03.241Z,15.10
2022-08-30T05:05:09.536Z,15.30
2022-08-30T05:07:58.532Z,15.40
2022-08-30T05:10:52.679Z,15.40
2022-08-30T05:13:40.272Z,15.60
2022-08-30T05:16:28.248Z,15.90
2022-08-30T05:19:15.772Z,16.30
2022-08-30T05:22:03.983Z,16.70
2022-08-30T05:24:51.533Z,17.10
2022-08-30T05:27:39.001Z,17.60
2022-08-30T05:30:28.693Z,18.00
2022-08-30T05:33:16.152Z,18.30
2022-08-30T05:36:08.053Z,18.70
2022-08-30T05:38:57.136Z,18.90
2022-08-30T05:41:44.632Z,19.20
2022-08-30T05:44:32.151Z,19.30
2022-08-30T05:47:21.048Z,19.50
2022-08-30T05:50:09.317Z,19.60
2022-08-30T05:52:56.952Z,19.80
2022-08-30T05:55:44.525Z,19.50
2022-08-30T05:58:33.428Z,19.30
2022-08-30T06:01:25.885Z,19.10
2022-08-30T06:04:14.349Z,18.80
2022-08-30T06:07:01.852Z,18.80
2022-08-30T06:09:49.475Z,18.70
2022-08-30T06:12:36.933Z,18.70
2022-08-30T06:15:24.593Z,18.60
2022-08-30T06:18:13.615Z,18.60
2022-08-30T06:21:01.123Z,18.60
2022-08-30T06:23:49.062Z,18.50
2022-08-30T06:26:45.058Z,18.40
2022-08-30T06:29:32.628Z,18.50
2022-08-30T06:32:20.167Z,18.40
2022-08-30T06:35:08.817Z,18.30
2022-08-30T06:37:57.235Z,18.50
2022-08-30T06:40:44.861Z,18.50
2022-08-30T06:43:32.413Z,18.70
2022-08-30T06:46:33.378Z,18.80
2022-08-30T06:49:21.743Z,19.00
2022-08-30T06:52:09.293Z,19.10
2022-08-30T06:54:59.194Z,19.10
2022-08-30T06:57:47.207Z,19.10
2022-08-30T07:00:34.702Z,19.30
2022-08-30T07:03:27.477Z,19.40
2022-08-30T07:06:15.222Z,19.80
2022-08-30T07:09:02.973Z,20.10
2022-08-30T07:11:52.862Z,20.30
2022-08-30T07:14:42.290Z,20.50
2022-08-30T07:17:48.598Z,20.60
2022-08-30T07:20:40.282Z,20.70
2022-08-30T07:23:28.342Z,20.80
2022-08-30T07:26:21.303Z,21.00
2022-08-30T07:29:09.742Z,21.20
2022-08-30T07:31:57.278Z,21.40
2022-08-30T07:34:44.868Z,21.50
2022-08-30T07:37:32.430Z,21.50
2022-08-30T07:40:20.342Z,21.70
2022-08-30T07:43:08.003Z,21.70
2022-08-30T07:45:58.166Z,21.90
2022-08-30T07:48:46.770Z,22.00
2022-08-30T07:51:34.533Z,22.10
2022-08-30T07:54:22.007Z,22.10
2022-08-30T07:57:09.607Z,22.10
2022-08-30T07:59:57.079Z,22.20
2022-08-30T08:02:45.688Z,22.30
2022-08-30T08:05:38.697Z,22.40
2022-08-30T08:08:26.913Z,22.40
2022-08-30T08:11:22.692Z,22.30
2022-08-30T08:14:10.925Z,22.30
2022-08-30T08:16:58.644Z,22.30
2022-08-30T08:19:46.204Z,22.40
2022-08-30T08:22:36.846Z,22.40
2022-08-30T08:25:27.558Z,22.30
2022-08-30T08:28:15.149Z,22.40
2022-08-30T08:31:03.628Z,22.50
2022-08-30T08:33:51.679Z,22.50
2022-08-30T08:36:40.514Z,22.60
2022-08-30T08:39:27.962Z,22.90
2022-08-30T08:43:01.476Z,22.90
2022-08-30T08:46:04.838Z,23.10
2022-08-30T08:49:00.477Z,23.30
2022-08-30T08:52:07.568Z,23.40
2022-08-30T08:55:11.413Z,23.40
2022-08-30T08:57:59.299Z,23.50
2022-08-30T09:00:46.882Z,23.70
2022-08-30T09:03:35.152Z,23.80
2022-08-30T09:07:01.489Z,23.70
2022-08-30T09:09:49.898Z,23.80
2022-08-30T09:12:37.372Z,24.00
2022-08-30T09:15:33.241Z,24.10
2022-08-30T09:18:48.185Z,24.00
2022-08-30T09:21:37.824Z,24.10
2022-08-30T09:24:26.230Z,24.10
2022-08-30T09:27:49.373Z,24.20
2022-08-30T09:30:37.709Z,24.20
2022-08-30T09:33:25.535Z,24.30
2022-08-30T09:36:49.900Z,24.20
2022-08-30T09:39:39.477Z,24.30
2022-08-30T09:42:30.172Z,24.50
2022-08-30T09:45:32.482Z,24.50
2022-08-30T09:48:44.353Z,24.50
2022-08-30T09:51:41.874Z,24.70
2022-08-30T09:54:59.894Z,24.80
2022-08-30T09:58:07.900Z,24.90
2022-08-30T10:01:15.952Z,25.10
2022-08-30T10:04:30.889Z,25.10
2022-08-30T10:07:34.567Z,25.20
2022-08-30T10:10:37.343Z,25.30
2022-08-30T10:13:43.373Z,25.30
2022-08-30T10:17:09.974Z,25.30
2022-08-30T10:20:35.508Z,25.40
2022-08-30T10:23:33.920Z,25.60
2022-08-30T10:26:35.772Z,25.80
2022-08-30T10:29:34.495Z,25.90
2022-08-30T10:32:37.967Z,26.00
2022-08-30T10:35:38.816Z,25.90
2022-08-30T10:38:32.987Z,25.90
2022-08-30T10:41:46.548Z,26.00
2022-08-30T10:44:51.082Z,26.10
2022-08-30T10:48:19.422Z,26.10
2022-08-30T10:51:55.393Z,26.30
2022-08-30T10:55:22.382Z,26.30
2022-08-30T10:58:09.989Z,26.40
2022-08-30T11:01:28.533Z,26.60
2022-08-30T11:04:28.522Z,26.60
2022-08-30T11:07:43.698Z,26.60
2022-08-30T11:11:13.473Z,26.80
2022-08-30T11:14:09.637Z,26.90
2022-08-30T11:17:02.270Z,27.00
2022-08-30T11:19:51.007Z,27.10
2022-08-30T11:22:39.433Z,27.20
2022-08-30T11:26:12.234Z,27.30
2022-08-30T11:29:09.077Z,27.40
2022-08-30T11:35:53.928Z,27.10
2022-08-30T11:38:41.386Z,27.10
2022-08-30T11:42:24.639Z,27.00
2022-08-30T11:45:24.988Z,27.10
2022-08-30T11:48:54.404Z,27.20
2022-08-30T11:55:45.132Z,27.20
2022-08-30T11:59:06.627Z,27.30
2022-08-30T12:01:58.811Z,27.40
2022-08-30T12:04:48.392Z,27.50
2022-08-30T12:08:01.686Z,27.50
2022-08-30T12:11:12.108Z,27.60
2022-08-30T12:14:01.612Z,27.50
2022-08-30T12:17:10.373Z,27.60
2022-08-30T12:20:00.326Z,27.80
2022-08-30T12:22:52.403Z,27.90
2022-08-30T12:25:40.591Z,28.00
2022-08-30T12:28:28.107Z,28.10
2022-08-30T12:31:24.550Z,28.10
2022-08-30T12:34:43.573Z,28.00
2022-08-30T12:37:41.470Z,28.00
2022-08-30T12:40:31.965Z,28.20
2022-08-30T12:43:40.141Z,28.10
2022-08-30T12:46:30.993Z,28.10
2022-08-30T12:49:20.982Z,28.20
2022-08-30T12:52:26.953Z,28.10
2022-08-30T12:55:25.622Z,28.20
2022-08-30T12:58:15.704Z,28.20
2022-08-30T13:01:33.294Z,28.20
2022-08-30T13:04:28.027Z,28.30
2022-08-30T13:07:36.239Z,28.40
2022-08-30T13:10:24.121Z,28.40
2022-08-30T13:13:11.699Z,28.40
2022-08-30T13:16:22.510Z,28.30
2022-08-30T13:19:38.752Z,28.30
2022-08-30T13:22:34.972Z,28.30
2022-08-30T13:25:23.037Z,28.40
2022-08-30T13:28:11.077Z,28.50
2022-08-30T13:30:58.613Z,28.50
2022-08-30T13:33:46.876Z,28.40
2022-08-30T13:36:49.433Z,28.50
2022-08-30T13:39:36.947Z,28.50
2022-08-30T13:42:32.503Z,28.40
2022-08-30T13:48:29.211Z,28.40
2022-08-30T13:51:16.682Z,28.50
2022-08-30T13:54:07.276Z,28.30
2022-08-30T13:56:56.832Z,28.20
2022-08-30T13:59:44.408Z,28.20
2022-08-30T14:02:44.166Z,28.10
2022-08-30T14:06:15.693Z,28.10
2022-08-30T14:08:48.606Z,28.20
2022-08-30T14:11:38.661Z,28.30
2022-08-30T14:14:39.266Z,28.30
2022-08-30T14:17:32.756Z,28.40
2022-08-30T14:20:20.892Z,28.50
2022-08-30T14:23:10.417Z,28.50
2022-08-30T14:26:00.410Z,28.50
2022-08-30T14:28:51.549Z,28.50
2022-08-30T14:31:41.026Z,28.40
2022-08-30T14:34:29.139Z,28.40
2022-08-30T14:37:17.455Z,28.40
2022-08-30T14:40:08.170Z,28.20
2022-08-30T14:42:56.041Z,28.10
2022-08-30T14:45:43.739Z,28.00
2022-08-30T14:48:31.592Z,28.00
2022-08-30T14:51:23.592Z,27.90
2022-08-30T14:54:11.212Z,27.90
2022-08-30T14:56:59.402Z,27.90
2022-08-30T14:59:47.133Z,27.90
2022-08-30T15:02:35.026Z,28.10
2022-08-30T15:05:22.492Z,28.10
2022-08-30T15:08:11.722Z,28.10
2022-08-30T15:11:01.312Z,28.10
2022-08-30T15:13:52.949Z,28.00
2022-08-30T15:16:41.002Z,28.00
2022-08-30T15:19:30.417Z,28.00
2022-08-30T15:22:18.325Z,28.00
2022-08-30T15:25:07.065Z,28.00
2022-08-30T15:27:54.538Z,28.00
2022-08-30T15:30:44.385Z,28.00
2022-08-30T15:33:31.872Z,27.90
2022-08-30T15:36:19.774Z,27.80
2022-08-30T15:39:07.671Z,27.80
2022-08-30T15:42:01.151Z,27.70
2022-08-30T15:44:56.033Z,27.80
2022-08-30T15:47:43.534Z,27.70
2022-08-30T15:50:32.677Z,27.70
2022-08-30T15:53:20.199Z,27.70
2022-08-30T15:56:07.912Z,27.70
2022-08-30T15:58:55.448Z,27.70
2022-08-30T16:01:44.385Z,27.70
2022-08-30T16:04:32.172Z,27.70
2022-08-30T16:07:19.774Z,27.60
2022-08-30T16:10:09.258Z,27.40
2022-08-30T16:13:00.247Z,27.30
2022-08-30T16:15:48.283Z,27.20
2022-08-30T16:18:37.334Z,27.10
2022-08-30T16:21:29.654Z,27.00
2022-08-30T16:24:18.842Z,26.90
2022-08-30T16:27:10.289Z,26.90
2022-08-30T16:29:58.732Z,26.80
2022-08-30T16:32:47.098Z,26.60
2022-08-30T16:35:34.752Z,26.50
2022-08-30T16:38:26.479Z,26.30
2022-08-30T16:41:21.327Z,26.00
2022-08-30T16:44:10.018Z,25.90
2022-08-30T16:46:59.211Z,25.80
2022-08-30T16:49:46.848Z,25.60
2022-08-30T16:52:34.347Z,25.60
2022-08-30T16:55:22.982Z,25.50
2022-08-30T16:58:13.832Z,25.50
2022-08-30T17:01:04.296Z,25.40
2022-08-30T17:03:52.777Z,25.30
2022-08-30T17:06:40.956Z,25.20
2022-08-30T17:09:28.762Z,25.00
2022-08-30T17:12:16.318Z,24.90
2022-08-30T17:15:05.851Z,24.80
2022-08-30T17:17:55.019Z,24.60
2022-08-30T17:20:44.478Z,24.60
2022-08-30T17:23:32.052Z,24.60
2022-08-30T17:26:19.596Z,24.60
2022-08-30T17:29:08.042Z,24.50
2022-08-30T17:31:56.927Z,24.40
2022-08-30T17:34:44.802Z,24.30
2022-08-30T17:37:33.454Z,24.10
2022-08-30T17:40:21.207Z,23.90
2022-08-30T17:43:08.738Z,23.70
2022-08-30T17:46:18.477Z,23.50
2022-08-30T17:49:10.414Z,23.40
2022-08-30T17:51:59.834Z,23.30
2022-08-30T17:54:47.453Z,23.20
2022-08-30T17:57:35.784Z,23.10
2022-08-30T18:00:24.177Z,23.00
2022-08-30T18:03:12.187Z,23.00
2022-08-30T18:06:04.056Z,22.90
2022-08-30T18:08:51.643Z,22.70
2022-08-30T18:11:41.303Z,22.50
2022-08-30T18:14:28.918Z,22.40
2022-08-30T18:17:16.952Z,22.30
2022-08-30T18:20:07.347Z,22.20
2022-08-30T18:22:55.378Z,22.10
2022-08-30T18:25:42.992Z,22.00
2022-08-30T18:28:32.961Z,22.00
2022-08-30T18:31:21.485Z,22.00
2022-08-30T18:34:12.426Z,22.10
2022-08-30T18:37:01.074Z,22.00
2022-08-30T18:39:48.633Z,22.10
2022-08-30T18:42:38.607Z,22.10
2022-08-30T18:45:26.112Z,22.10
2022-08-30T18:48:14.689Z,22.10
2022-08-30T18:51:02.907Z,22.00
2022-08-30T18:53:50.484Z,21.90
2022-08-30T18:56:39.212Z,21.90
2022-08-30T18:59:35.345Z,21.90
2022-08-30T19:02:27.498Z,21.80
2022-08-30T19:05:19.073Z,21.70
2022-08-30T19:08:08.132Z,21.60
2022-08-30T19:11:04.664Z,21.60
2022-08-30T19:13:52.751Z,21.60
2022-08-30T19:16:41.441Z,21.50
2022-08-30T19:19:29.150Z,21.50
2022-08-30T19:22:18.926Z,21.40
2022-08-30T19:25:10.157Z,21.40
2022-08-30T19:27:57.797Z,21.30
2022-08-30T19:30:45.297Z,21.30
2022-08-30T19:33:32.988Z,21.20
2022-08-30T19:36:20.827Z,21.20
2022-08-30T19:39:10.040Z,21.20
2022-08-30T19:41:58.633Z,21.10
2022-08-30T19:44:46.213Z,21.10
2022-08-30T19:47:33.777Z,21.10
2022-08-30T19:50:22.488Z,21.10
2022-08-30T19:53:10.066Z,21.00
2022-08-30T19:55:58.408Z,20.90
2022-08-30T19:58:45.988Z,20.80
2022-08-30T20:01:34.128Z,20.80
2022-08-30T20:04:22.017Z,20.70
2022-08-30T20:07:11.143Z,20.70
2022-08-30T20:10:00.532Z,20.60
2022-08-30T20:12:49.851Z,20.60
2022-08-30T20:15:37.993Z,20.50
2022-08-30T20:18:26.884Z,20.30
2022-08-30T20:21:14.709Z,20.30
2022-08-30T20:24:02.908Z,20.30
2022-08-30T20:26:51.800Z,20.30
2022-08-30T20:29:40.383Z,20.30
2022-08-30T20:32:27.934Z,20.20
2022-08-30T20:35:17.933Z,20.10
2022-08-30T20:38:08.393Z,20.00
2022-08-30T20:40:59.124Z,20.00
2022-08-30T20:43:48.857Z,19.90
2022-08-30T20:46:36.518Z,19.70
2022-08-30T20:49:24.043Z,19.40
2022-08-30T20:52:11.663Z,19.10
2022-08-30T20:54:59.233Z,18.90
2022-08-30T20:57:47.458Z,18.70
2022-08-30T21:00:35.057Z,18.50
2022-08-30T21:03:26.562Z,18.30
2022-08-30T21:06:18.936Z,18.20
2022-08-30T21:09:09.004Z,18.00
2022-08-30T21:11:56.483Z,18.00
2022-08-30T21:14:44.153Z,18.00
2022-08-30T21:17:31.919Z,17.90
2022-08-30T21:20:19.639Z,18.00
2022-08-30T21:23:07.578Z,18.20
2022-08-30T21:25:55.128Z,18.30
2022-08-30T21:28:45.890Z,18.50
2022-08-30T21:31:35.695Z,18.60
2022-08-30T21:34:24.378Z,18.70
2022-08-30T21:37:12.534Z,18.70
2022-08-30T21:40:00.927Z,18.80
2022-08-30T21:42:48.528Z,18.90
2022-08-30T21:45:45.724Z,19.00
2022-08-30T21:48:37.273Z,19.00
2022-08-30T21:51:25.849Z,19.00
2022-08-30T21:54:16.379Z,19.00
2022-08-30T21:57:05.488Z,19.00
2022-08-30T21:59:53.199Z,18.90
2022-08-30T22:02:41.018Z,18.90
2022-08-30T22:05:28.644Z,18.90
2022-08-30T22:08:16.089Z,18.80
2022-08-30T22:11:13.153Z,18.80
2022-08-30T22:14:02.405Z,18.80
2022-08-30T22:16:51.281Z,18.80
2022-08-30T22:19:38.813Z,18.80
2022-08-30T22:22:26.358Z,18.80
2022-08-30T22:25:13.950Z,18.80
2022-08-30T22:28:01.503Z,18.90
2022-08-30T22:30:52.425Z,18.80
2022-08-30T22:33:41.127Z,18.80
2022-08-30T22:36:35.283Z,18.80
2022-08-30T22:39:22.855Z,18.70
2022-08-30T22:42:10.445Z,18.70
2022-08-30T22:44:57.951Z,18.70
2022-08-30T22:47:45.653Z,18.70
2022-08-30T22:50:33.293Z,18.60
2022-08-30T22:53:20.891Z,18.40
2022-08-30T22:56:12.619Z,18.20
2022-08-30T22:59:00.368Z,18.00
2022-08-30T23:01:47.933Z,17.80
2022-08-30T23:04:39.609Z,17.60
2022-08-30T23:07:27.124Z,17.30
2022-08-30T23:10:15.184Z,17.10
2022-08-30T23:13:02.874Z,17.00
2022-08-30T23:15:50.544Z,16.90
2022-08-30T23:18:41.194Z,16.70
2022-08-30T23:21:30.934Z,16.60
2022-08-30T23:24:37.227Z,16.50
2022-08-30T23:27:43.268Z,16.50
2022-08-30T23:30:49.468Z,16.30
2022-08-30T23:33:55.664Z,16.20
2022-08-30T23:37:02.383Z,16.10
2022-08-30T23:40:08.659Z,16.00
2022-08-30T23:43:14.930Z,15.90
2022-08-30T23:46:21.562Z,15.80
2022-08-30T23:49:27.608Z,15.70
2022-08-30T23:52:33.880Z,15.70
2022-08-30T23:55:40.006Z,15.60
2022-08-30T23:58:46.307Z,15.60
